sensor_id;sensor_type;location;lat;lon;timestamp;P1;durP1;ratioP1;P2;durP2;ratioP2
4895;SDS011;2463;49.948;8.472;2022-08-19T00:01:29;103.97;;;12.27;;
4895;SDS011;2463;49.948;8.472;2022-08-19T00:03:59;99.87;;;12.03;;
4895;SDS011;2463;49.948;8.472;2022-08-19T00:06:29;103.07;;;13.80;;
4895;SDS011;2463;49.948;8.472;2022-08-19T00:08:57;105.27;;;13.27;;
4895;SDS011;2463;49.948;8.472;2022-08-19T00:11:26;98.93;;;12.00;;
4895;SDS011;2463;49.948;8.472;2022-08-19T00:13:54;101.20;;;11.90;;
4895;SDS011;2463;49.948;8.472;2022-08-19T00:16:23;102.63;;;13.02;;
4895;SDS011;2463;49.948;8.472;2022-08-19T00:18:51;102.60;;;13.93;;
4895;SDS011;2463;49.948;8.472;2022-08-19T00:21:19;103.50;;;13.30;;
4895;SDS011;2463;49.948;8.472;2022-08-19T00:23:46;102.87;;;13.53;;
4895;SDS011;2463;49.948;8.472;2022-08-19T00:26:13;101.63;;;12.50;;
4895;SDS011;2463;49.948;8.472;2022-08-19T00:28:40;104.60;;;12.90;;
4895;SDS011;2463;49.948;8.472;2022-08-19T00:31:07;104.33;;;12.93;;
4895;SDS011;2463;49.948;8.472;2022-08-19T00:33:35;103.10;;;12.67;;
4895;SDS011;2463;49.948;8.472;2022-08-19T00:36:05;103.25;;;12.82;;
4895;SDS011;2463;49.948;8.472;2022-08-19T00:38:34;103.77;;;13.10;;
4895;SDS011;2463;49.948;8.472;2022-08-19T00:41:03;101.20;;;12.77;;
4895;SDS011;2463;49.948;8.472;2022-08-19T00:43:31;99.73;;;11.27;;
4895;SDS011;2463;49.948;8.472;2022-08-19T00:45:58;103.97;;;13.23;;
4895;SDS011;2463;49.948;8.472;2022-08-19T00:48:24;100.70;;;12.60;;
4895;SDS011;2463;49.948;8.472;2022-08-19T00:50:52;102.57;;;12.43;;
4895;SDS011;2463;49.948;8.472;2022-08-19T00:53:22;103.07;;;13.10;;
4895;SDS011;2463;49.948;8.472;2022-08-19T00:55:52;107.10;;;14.30;;
4895;SDS011;2463;49.948;8.472;2022-08-19T00:58:23;103.80;;;13.80;;
4895;SDS011;2463;49.948;8.472;2022-08-19T01:00:54;103.27;;;13.10;;
4895;SDS011;2463;49.948;8.472;2022-08-19T01:03:21;103.77;;;12.27;;
4895;SDS011;2463;49.948;8.472;2022-08-19T01:05:49;105.65;;;13.73;;
4895;SDS011;2463;49.948;8.472;2022-08-19T01:08:18;100.97;;;12.23;;
4895;SDS011;2463;49.948;8.472;2022-08-19T01:10:47;102.13;;;13.55;;
4895;SDS011;2463;49.948;8.472;2022-08-19T01:13:20;102.85;;;13.10;;
4895;SDS011;2463;49.948;8.472;2022-08-19T01:15:51;104.33;;;13.60;;
4895;SDS011;2463;49.948;8.472;2022-08-19T01:18:27;106.10;;;13.52;;
4895;SDS011;2463;49.948;8.472;2022-08-19T01:20:56;102.75;;;12.70;;
4895;SDS011;2463;49.948;8.472;2022-08-19T01:23:27;102.83;;;12.33;;
4895;SDS011;2463;49.948;8.472;2022-08-19T01:26:10;105.28;;;14.00;;
4895;SDS011;2463;49.948;8.472;2022-08-19T01:28:43;103.00;;;13.07;;
4895;SDS011;2463;49.948;8.472;2022-08-19T01:31:16;103.80;;;13.40;;
4895;SDS011;2463;49.948;8.472;2022-08-19T01:33:53;108.72;;;13.38;;
4895;SDS011;2463;49.948;8.472;2022-08-19T01:36:23;102.67;;;12.60;;
4895;SDS011;2463;49.948;8.472;2022-08-19T01:38:55;102.38;;;13.45;;
4895;SDS011;2463;49.948;8.472;2022-08-19T01:41:24;102.10;;;13.30;;
4895;SDS011;2463;49.948;8.472;2022-08-19T01:43:51;102.87;;;14.07;;
4895;SDS011;2463;49.948;8.472;2022-08-19T01:46:39;104.03;;;12.43;;
4895;SDS011;2463;49.948;8.472;2022-08-19T01:49:06;101.07;;;12.27;;
4895;SDS011;2463;49.948;8.472;2022-08-19T01:51:34;100.67;;;12.33;;
4895;SDS011;2463;49.948;8.472;2022-08-19T01:54:05;106.17;;;14.60;;
4895;SDS011;2463;49.948;8.472;2022-08-19T01:56:35;100.60;;;12.37;;
4895;SDS011;2463;49.948;8.472;2022-08-19T01:59:03;101.95;;;13.43;;
4895;SDS011;2463;49.948;8.472;2022-08-19T02:01:34;101.95;;;13.45;;
4895;SDS011;2463;49.948;8.472;2022-08-19T02:04:01;107.80;;;14.10;;
4895;SDS011;2463;49.948;8.472;2022-08-19T02:06:28;100.40;;;12.33;;
4895;SDS011;2463;49.948;8.472;2022-08-19T02:08:55;104.50;;;12.77;;
4895;SDS011;2463;49.948;8.472;2022-08-19T02:11:24;100.30;;;11.93;;
4895;SDS011;2463;49.948;8.472;2022-08-19T02:13:54;103.57;;;13.07;;
4895;SDS011;2463;49.948;8.472;2022-08-19T02:16:21;101.40;;;13.20;;
4895;SDS011;2463;49.948;8.472;2022-08-19T02:18:49;102.57;;;13.43;;
4895;SDS011;2463;49.948;8.472;2022-08-19T02:21:17;102.57;;;12.75;;
4895;SDS011;2463;49.948;8.472;2022-08-19T02:23:46;103.07;;;13.70;;
4895;SDS011;2463;49.948;8.472;2022-08-19T02:26:14;101.90;;;14.17;;
4895;SDS011;2463;49.948;8.472;2022-08-19T02:28:41;105.70;;;13.90;;
4895;SDS011;2463;49.948;8.472;2022-08-19T02:31:09;104.17;;;13.57;;
4895;SDS011;2463;49.948;8.472;2022-08-19T02:33:37;100.57;;;12.87;;
4895;SDS011;2463;49.948;8.472;2022-08-19T02:36:04;104.77;;;14.17;;
4895;SDS011;2463;49.948;8.472;2022-08-19T02:38:32;101.30;;;13.43;;
4895;SDS011;2463;49.948;8.472;2022-08-19T02:41:01;102.57;;;12.20;;
4895;SDS011;2463;49.948;8.472;2022-08-19T02:43:31;103.63;;;12.93;;
4895;SDS011;2463;49.948;8.472;2022-08-19T02:46:10;106.87;;;14.90;;
4895;SDS011;2463;49.948;8.472;2022-08-19T02:48:50;104.37;;;13.93;;
4895;SDS011;2463;49.948;8.472;2022-08-19T02:51:19;105.33;;;14.30;;
4895;SDS011;2463;49.948;8.472;2022-08-19T02:53:51;103.75;;;14.95;;
4895;SDS011;2463;49.948;8.472;2022-08-19T02:56:18;101.43;;;13.07;;
4895;SDS011;2463;49.948;8.472;2022-08-19T02:58:46;105.10;;;14.68;;
4895;SDS011;2463;49.948;8.472;2022-08-19T03:01:30;104.20;;;14.73;;
4895;SDS011;2463;49.948;8.472;2022-08-19T03:03:59;106.27;;;15.20;;
4895;SDS011;2463;49.948;8.472;2022-08-19T03:06:27;104.27;;;14.80;;
4895;SDS011;2463;49.948;8.472;2022-08-19T03:08:54;100.80;;;13.00;;
4895;SDS011;2463;49.948;8.472;2022-08-19T03:13:49;106.90;;;15.00;;
4895;SDS011;2463;49.948;8.472;2022-08-19T03:16:20;107.33;;;15.87;;
4895;SDS011;2463;49.948;8.472;2022-08-19T03:18:49;108.57;;;16.57;;
4895;SDS011;2463;49.948;8.472;2022-08-19T03:21:17;105.38;;;15.15;;
4895;SDS011;2463;49.948;8.472;2022-08-19T03:23:48;108.20;;;15.40;;
4895;SDS011;2463;49.948;8.472;2022-08-19T03:26:15;105.07;;;15.17;;
4895;SDS011;2463;49.948;8.472;2022-08-19T03:28:43;108.30;;;14.77;;
4895;SDS011;2463;49.948;8.472;2022-08-19T03:31:24;105.97;;;14.20;;
4895;SDS011;2463;49.948;8.472;2022-08-19T03:34:15;108.47;;;15.40;;
4895;SDS011;2463;49.948;8.472;2022-08-19T03:36:45;106.28;;;13.32;;
4895;SDS011;2463;49.948;8.472;2022-08-19T03:39:13;104.55;;;14.40;;
4895;SDS011;2463;49.948;8.472;2022-08-19T03:41:42;108.67;;;15.43;;
4895;SDS011;2463;49.948;8.472;2022-08-19T03:44:14;103.27;;;13.00;;
4895;SDS011;2463;49.948;8.472;2022-08-19T03:46:44;102.65;;;13.25;;
4895;SDS011;2463;49.948;8.472;2022-08-19T03:49:12;106.40;;;14.57;;
4895;SDS011;2463;49.948;8.472;2022-08-19T03:51:40;107.22;;;15.63;;
4895;SDS011;2463;49.948;8.472;2022-08-19T03:54:09;104.85;;;15.07;;
4895;SDS011;2463;49.948;8.472;2022-08-19T03:56:38;104.88;;;14.60;;
4895;SDS011;2463;49.948;8.472;2022-08-19T03:59:08;105.80;;;14.93;;
4895;SDS011;2463;49.948;8.472;2022-08-19T04:01:37;104.43;;;15.43;;
4895;SDS011;2463;49.948;8.472;2022-08-19T04:04:03;104.40;;;14.63;;
4895;SDS011;2463;49.948;8.472;2022-08-19T04:06:33;110.63;;;15.43;;
4895;SDS011;2463;49.948;8.472;2022-08-19T04:09:06;106.10;;;14.25;;
4895;SDS011;2463;49.948;8.472;2022-08-19T04:11:37;103.40;;;15.20;;
4895;SDS011;2463;49.948;8.472;2022-08-19T04:14:17;107.50;;;15.20;;
4895;SDS011;2463;49.948;8.472;2022-08-19T04:16:46;107.30;;;15.20;;
4895;SDS011;2463;49.948;8.472;2022-08-19T04:19:15;105.97;;;14.50;;
4895;SDS011;2463;49.948;8.472;2022-08-19T04:21:43;108.13;;;14.70;;
4895;SDS011;2463;49.948;8.472;2022-08-19T04:24:12;112.63;;;15.20;;
4895;SDS011;2463;49.948;8.472;2022-08-19T04:26:39;106.37;;;14.20;;
4895;SDS011;2463;49.948;8.472;2022-08-19T04:29:08;105.18;;;14.20;;
4895;SDS011;2463;49.948;8.472;2022-08-19T04:31:38;102.32;;;13.70;;
4895;SDS011;2463;49.948;8.472;2022-08-19T04:34:07;103.30;;;14.02;;
4895;SDS011;2463;49.948;8.472;2022-08-19T04:36:39;104.73;;;14.30;;
4895;SDS011;2463;49.948;8.472;2022-08-19T04:39:08;104.68;;;14.85;;
4895;SDS011;2463;49.948;8.472;2022-08-19T04:41:37;105.93;;;13.95;;
4895;SDS011;2463;49.948;8.472;2022-08-19T04:44:23;103.70;;;15.00;;
4895;SDS011;2463;49.948;8.472;2022-08-19T04:46:50;105.88;;;15.43;;
4895;SDS011;2463;49.948;8.472;2022-08-19T04:49:18;105.05;;;14.40;;
4895;SDS011;2463;49.948;8.472;2022-08-19T04:51:48;102.70;;;13.23;;
4895;SDS011;2463;49.948;8.472;2022-08-19T04:54:17;105.90;;;15.10;;
4895;SDS011;2463;49.948;8.472;2022-08-19T04:57:04;106.13;;;14.07;;
4895;SDS011;2463;49.948;8.472;2022-08-19T04:59:33;102.82;;;14.80;;
4895;SDS011;2463;49.948;8.472;2022-08-19T05:02:00;104.65;;;13.18;;
4895;SDS011;2463;49.948;8.472;2022-08-19T05:04:27;104.47;;;13.52;;
4895;SDS011;2463;49.948;8.472;2022-08-19T05:06:57;103.75;;;14.30;;
4895;SDS011;2463;49.948;8.472;2022-08-19T05:09:26;103.93;;;12.98;;
4895;SDS011;2463;49.948;8.472;2022-08-19T05:12:14;102.38;;;13.88;;
4895;SDS011;2463;49.948;8.472;2022-08-19T05:14:41;103.43;;;13.95;;
4895;SDS011;2463;49.948;8.472;2022-08-19T05:17:08;103.47;;;13.90;;
4895;SDS011;2463;49.948;8.472;2022-08-19T05:19:53;101.05;;;13.10;;
4895;SDS011;2463;49.948;8.472;2022-08-19T05:22:39;104.82;;;13.80;;
4895;SDS011;2463;49.948;8.472;2022-08-19T05:25:09;106.07;;;13.65;;
4895;SDS011;2463;49.948;8.472;2022-08-19T05:27:41;105.38;;;15.18;;
4895;SDS011;2463;49.948;8.472;2022-08-19T05:30:09;105.15;;;13.18;;
4895;SDS011;2463;49.948;8.472;2022-08-19T05:32:37;103.80;;;14.07;;
4895;SDS011;2463;49.948;8.472;2022-08-19T05:35:04;106.72;;;14.23;;
4895;SDS011;2463;49.948;8.472;2022-08-19T05:37:31;103.07;;;14.02;;
4895;SDS011;2463;49.948;8.472;2022-08-19T05:39:58;103.25;;;13.10;;
4895;SDS011;2463;49.948;8.472;2022-08-19T05:42:25;102.95;;;12.20;;
4895;SDS011;2463;49.948;8.472;2022-08-19T05:44:52;101.28;;;12.63;;
4895;SDS011;2463;49.948;8.472;2022-08-19T05:47:19;104.15;;;13.23;;
4895;SDS011;2463;49.948;8.472;2022-08-19T05:49:46;100.18;;;12.48;;
4895;SDS011;2463;49.948;8.472;2022-08-19T05:52:15;101.90;;;13.60;;
4895;SDS011;2463;49.948;8.472;2022-08-19T05:54:44;100.60;;;11.70;;
4895;SDS011;2463;49.948;8.472;2022-08-19T05:57:16;106.10;;;11.83;;
4895;SDS011;2463;49.948;8.472;2022-08-19T05:59:44;100.00;;;12.17;;
4895;SDS011;2463;49.948;8.472;2022-08-19T06:02:11;106.30;;;12.80;;
4895;SDS011;2463;49.948;8.472;2022-08-19T06:04:39;98.20;;;11.60;;
4895;SDS011;2463;49.948;8.472;2022-08-19T06:07:08;100.05;;;12.75;;
4895;SDS011;2463;49.948;8.472;2022-08-19T06:09:38;101.83;;;12.20;;
4895;SDS011;2463;49.948;8.472;2022-08-19T06:12:05;102.20;;;11.73;;
4895;SDS011;2463;49.948;8.472;2022-08-19T06:14:33;102.68;;;11.68;;
4895;SDS011;2463;49.948;8.472;2022-08-19T06:17:07;98.93;;;10.82;;
4895;SDS011;2463;49.948;8.472;2022-08-19T06:19:34;97.85;;;11.07;;
4895;SDS011;2463;49.948;8.472;2022-08-19T06:22:06;97.30;;;11.60;;
4895;SDS011;2463;49.948;8.472;2022-08-19T06:24:34;99.28;;;10.90;;
4895;SDS011;2463;49.948;8.472;2022-08-19T06:27:02;97.15;;;11.43;;
4895;SDS011;2463;49.948;8.472;2022-08-19T06:29:31;98.57;;;11.63;;
4895;SDS011;2463;49.948;8.472;2022-08-19T06:32:00;98.90;;;11.07;;
4895;SDS011;2463;49.948;8.472;2022-08-19T06:34:29;98.40;;;11.80;;
4895;SDS011;2463;49.948;8.472;2022-08-19T06:36:58;99.50;;;11.00;;
4895;SDS011;2463;49.948;8.472;2022-08-19T06:39:31;95.93;;;11.60;;
4895;SDS011;2463;49.948;8.472;2022-08-19T06:42:04;92.17;;;9.90;;
4895;SDS011;2463;49.948;8.472;2022-08-19T06:44:36;92.37;;;10.13;;
4895;SDS011;2463;49.948;8.472;2022-08-19T06:47:09;94.67;;;10.37;;
4895;SDS011;2463;49.948;8.472;2022-08-19T06:49:48;96.77;;;10.73;;
4895;SDS011;2463;49.948;8.472;2022-08-19T06:52:15;92.17;;;9.37;;
4895;SDS011;2463;49.948;8.472;2022-08-19T06:54:42;94.70;;;9.30;;
4895;SDS011;2463;49.948;8.472;2022-08-19T06:57:22;93.00;;;9.13;;
4895;SDS011;2463;49.948;8.472;2022-08-19T06:59:49;90.37;;;9.07;;
4895;SDS011;2463;49.948;8.472;2022-08-19T07:02:16;88.67;;;9.07;;
4895;SDS011;2463;49.948;8.472;2022-08-19T07:04:49;93.17;;;8.73;;
4895;SDS011;2463;49.948;8.472;2022-08-19T07:07:18;88.80;;;8.07;;
4895;SDS011;2463;49.948;8.472;2022-08-19T07:09:47;86.83;;;8.20;;
4895;SDS011;2463;49.948;8.472;2022-08-19T07:12:25;91.97;;;8.33;;
4895;SDS011;2463;49.948;8.472;2022-08-19T07:14:56;88.87;;;7.43;;
4895;SDS011;2463;49.948;8.472;2022-08-19T07:17:23;86.13;;;7.33;;
4895;SDS011;2463;49.948;8.472;2022-08-19T07:19:51;86.87;;;7.27;;
4895;SDS011;2463;49.948;8.472;2022-08-19T07:22:20;85.90;;;7.53;;
4895;SDS011;2463;49.948;8.472;2022-08-19T07:24:50;85.33;;;6.80;;
4895;SDS011;2463;49.948;8.472;2022-08-19T07:27:17;85.47;;;6.97;;
4895;SDS011;2463;49.948;8.472;2022-08-19T07:29:50;86.63;;;7.13;;
4895;SDS011;2463;49.948;8.472;2022-08-19T07:32:23;86.93;;;7.10;;
4895;SDS011;2463;49.948;8.472;2022-08-19T07:34:52;89.07;;;7.60;;
4895;SDS011;2463;49.948;8.472;2022-08-19T07:37:22;88.53;;;6.77;;
4895;SDS011;2463;49.948;8.472;2022-08-19T07:39:53;86.77;;;6.60;;
4895;SDS011;2463;49.948;8.472;2022-08-19T07:42:20;87.00;;;6.43;;
4895;SDS011;2463;49.948;8.472;2022-08-19T07:44:47;88.90;;;6.37;;
4895;SDS011;2463;49.948;8.472;2022-08-19T07:47:16;85.10;;;6.60;;
4895;SDS011;2463;49.948;8.472;2022-08-19T07:50:05;86.27;;;6.27;;
4895;SDS011;2463;49.948;8.472;2022-08-19T07:52:34;87.13;;;6.00;;
4895;SDS011;2463;49.948;8.472;2022-08-19T07:55:02;87.03;;;7.10;;
4895;SDS011;2463;49.948;8.472;2022-08-19T07:57:30;85.50;;;6.43;;
4895;SDS011;2463;49.948;8.472;2022-08-19T07:59:57;84.80;;;6.80;;
4895;SDS011;2463;49.948;8.472;2022-08-19T08:02:24;88.57;;;6.80;;
4895;SDS011;2463;49.948;8.472;2022-08-19T08:04:51;95.03;;;7.07;;
4895;SDS011;2463;49.948;8.472;2022-08-19T08:07:36;90.30;;;6.40;;
4895;SDS011;2463;49.948;8.472;2022-08-19T08:10:21;83.83;;;6.43;;
4895;SDS011;2463;49.948;8.472;2022-08-19T08:12:49;85.60;;;6.53;;
4895;SDS011;2463;49.948;8.472;2022-08-19T08:15:36;87.40;;;6.90;;
4895;SDS011;2463;49.948;8.472;2022-08-19T08:18:08;85.63;;;6.60;;
4895;SDS011;2463;49.948;8.472;2022-08-19T08:20:36;85.97;;;6.97;;
4895;SDS011;2463;49.948;8.472;2022-08-19T08:23:03;84.57;;;5.87;;
4895;SDS011;2463;49.948;8.472;2022-08-19T08:25:48;83.57;;;5.87;;
4895;SDS011;2463;49.948;8.472;2022-08-19T08:28:15;91.70;;;5.50;;
4895;SDS011;2463;49.948;8.472;2022-08-19T08:30:46;82.87;;;5.60;;
4895;SDS011;2463;49.948;8.472;2022-08-19T08:33:19;84.00;;;5.60;;
4895;SDS011;2463;49.948;8.472;2022-08-19T08:36:00;82.77;;;5.40;;
4895;SDS011;2463;49.948;8.472;2022-08-19T08:38:29;83.07;;;5.77;;
4895;SDS011;2463;49.948;8.472;2022-08-19T08:41:53;83.17;;;5.47;;
4895;SDS011;2463;49.948;8.472;2022-08-19T08:44:23;82.80;;;5.13;;
4895;SDS011;2463;49.948;8.472;2022-08-19T08:47:14;84.00;;;4.87;;
4895;SDS011;2463;49.948;8.472;2022-08-19T08:50:04;82.37;;;4.40;;
4895;SDS011;2463;49.948;8.472;2022-08-19T08:52:44;81.47;;;4.97;;
4895;SDS011;2463;49.948;8.472;2022-08-19T08:55:15;83.70;;;5.63;;
4895;SDS011;2463;49.948;8.472;2022-08-19T09:00:25;83.23;;;5.50;;
4895;SDS011;2463;49.948;8.472;2022-08-19T09:02:56;83.07;;;5.53;;
4895;SDS011;2463;49.948;8.472;2022-08-19T09:05:26;84.30;;;6.17;;
4895;SDS011;2463;49.948;8.472;2022-08-19T09:08:17;85.70;;;5.87;;
4895;SDS011;2463;49.948;8.472;2022-08-19T09:10:55;84.40;;;6.13;;
4895;SDS011;2463;49.948;8.472;2022-08-19T09:13:49;81.30;;;5.47;;
4895;SDS011;2463;49.948;8.472;2022-08-19T09:16:19;82.10;;;5.80;;
4895;SDS011;2463;49.948;8.472;2022-08-19T09:18:54;81.47;;;4.97;;
4895;SDS011;2463;49.948;8.472;2022-08-19T09:21:24;82.63;;;5.30;;
4895;SDS011;2463;49.948;8.472;2022-08-19T09:23:58;82.10;;;5.60;;
4895;SDS011;2463;49.948;8.472;2022-08-19T09:26:25;81.87;;;6.00;;
4895;SDS011;2463;49.948;8.472;2022-08-19T09:29:13;86.70;;;6.97;;
4895;SDS011;2463;49.948;8.472;2022-08-19T09:31:39;81.37;;;5.33;;
4895;SDS011;2463;49.948;8.472;2022-08-19T09:34:07;85.17;;;6.90;;
4895;SDS011;2463;49.948;8.472;2022-08-19T09:36:46;84.27;;;7.33;;
4895;SDS011;2463;49.948;8.472;2022-08-19T09:39:12;84.53;;;6.90;;
4895;SDS011;2463;49.948;8.472;2022-08-19T09:41:41;84.97;;;7.23;;
4895;SDS011;2463;49.948;8.472;2022-08-19T09:44:14;84.20;;;6.70;;
4895;SDS011;2463;49.948;8.472;2022-08-19T09:46:43;85.33;;;7.63;;
4895;SDS011;2463;49.948;8.472;2022-08-19T09:49:09;84.40;;;6.93;;
4895;SDS011;2463;49.948;8.472;2022-08-19T09:51:38;82.50;;;6.60;;
4895;SDS011;2463;49.948;8.472;2022-08-19T09:54:06;82.63;;;6.17;;
4895;SDS011;2463;49.948;8.472;2022-08-19T09:56:36;81.87;;;6.40;;
4895;SDS011;2463;49.948;8.472;2022-08-19T09:59:03;86.43;;;7.80;;
4895;SDS011;2463;49.948;8.472;2022-08-19T10:01:30;83.93;;;7.93;;
4895;SDS011;2463;49.948;8.472;2022-08-19T10:03:59;84.10;;;8.10;;
4895;SDS011;2463;49.948;8.472;2022-08-19T10:06:39;84.30;;;7.83;;
4895;SDS011;2463;49.948;8.472;2022-08-19T10:09:12;85.60;;;7.33;;
4895;SDS011;2463;49.948;8.472;2022-08-19T10:11:41;85.17;;;8.50;;
4895;SDS011;2463;49.948;8.472;2022-08-19T10:14:20;81.77;;;6.70;;
4895;SDS011;2463;49.948;8.472;2022-08-19T10:16:49;82.27;;;8.23;;
4895;SDS011;2463;49.948;8.472;2022-08-19T10:19:16;83.47;;;7.87;;
4895;SDS011;2463;49.948;8.472;2022-08-19T10:21:51;85.27;;;9.60;;
4895;SDS011;2463;49.948;8.472;2022-08-19T10:24:20;86.13;;;8.90;;
4895;SDS011;2463;49.948;8.472;2022-08-19T10:26:50;86.40;;;9.23;;
4895;SDS011;2463;49.948;8.472;2022-08-19T10:29:24;84.87;;;9.80;;
4895;SDS011;2463;49.948;8.472;2022-08-19T10:31:59;85.07;;;8.57;;
4895;SDS011;2463;49.948;8.472;2022-08-19T10:34:28;82.30;;;8.30;;
4895;SDS011;2463;49.948;8.472;2022-08-19T10:36:56;83.07;;;9.10;;
4895;SDS011;2463;49.948;8.472;2022-08-19T10:39:26;84.17;;;9.70;;
4895;SDS011;2463;49.948;8.472;2022-08-19T10:41:56;84.33;;;8.77;;
4895;SDS011;2463;49.948;8.472;2022-08-19T10:44:23;86.40;;;9.10;;
4895;SDS011;2463;49.948;8.472;2022-08-19T10:46:57;85.00;;;8.57;;
4895;SDS011;2463;49.948;8.472;2022-08-19T10:49:25;82.17;;;8.13;;
4895;SDS011;2463;49.948;8.472;2022-08-19T10:51:53;82.00;;;7.93;;
4895;SDS011;2463;49.948;8.472;2022-08-19T10:54:45;82.23;;;7.73;;
4895;SDS011;2463;49.948;8.472;2022-08-19T10:57:33;84.70;;;8.70;;
4895;SDS011;2463;49.948;8.472;2022-08-19T11:00:21;82.70;;;8.13;;
4895;SDS011;2463;49.948;8.472;2022-08-19T11:02:49;81.80;;;7.83;;
4895;SDS011;2463;49.948;8.472;2022-08-19T11:05:16;80.87;;;7.00;;
4895;SDS011;2463;49.948;8.472;2022-08-19T11:07:44;82.00;;;7.47;;
4895;SDS011;2463;49.948;8.472;2022-08-19T11:10:12;82.50;;;8.13;;
4895;SDS011;2463;49.948;8.472;2022-08-19T11:12:46;83.90;;;7.60;;
4895;SDS011;2463;49.948;8.472;2022-08-19T11:15:13;81.60;;;7.70;;
4895;SDS011;2463;49.948;8.472;2022-08-19T11:17:40;80.07;;;6.77;;
4895;SDS011;2463;49.948;8.472;2022-08-19T11:20:10;81.07;;;7.80;;
4895;SDS011;2463;49.948;8.472;2022-08-19T11:22:38;82.37;;;8.00;;
4895;SDS011;2463;49.948;8.472;2022-08-19T11:25:08;81.20;;;7.40;;
4895;SDS011;2463;49.948;8.472;2022-08-19T11:27:37;83.53;;;7.67;;
4895;SDS011;2463;49.948;8.472;2022-08-19T11:30:07;79.90;;;6.80;;
4895;SDS011;2463;49.948;8.472;2022-08-19T11:32:38;80.50;;;7.30;;
4895;SDS011;2463;49.948;8.472;2022-08-19T11:35:14;81.70;;;7.70;;
4895;SDS011;2463;49.948;8.472;2022-08-19T11:37:42;79.43;;;6.57;;
4895;SDS011;2463;49.948;8.472;2022-08-19T11:40:09;79.80;;;7.20;;
4895;SDS011;2463;49.948;8.472;2022-08-19T11:42:36;80.97;;;7.47;;
4895;SDS011;2463;49.948;8.472;2022-08-19T11:45:25;84.27;;;7.07;;
4895;SDS011;2463;49.948;8.472;2022-08-19T11:47:53;82.10;;;7.10;;
4895;SDS011;2463;49.948;8.472;2022-08-19T11:50:21;80.40;;;6.80;;
4895;SDS011;2463;49.948;8.472;2022-08-19T11:52:49;83.70;;;6.27;;
4895;SDS011;2463;49.948;8.472;2022-08-19T11:55:17;81.97;;;6.07;;
4895;SDS011;2463;49.948;8.472;2022-08-19T11:57:45;82.80;;;7.00;;
4895;SDS011;2463;49.948;8.472;2022-08-19T12:00:12;79.50;;;5.77;;
4895;SDS011;2463;49.948;8.472;2022-08-19T12:02:40;80.00;;;6.03;;
4895;SDS011;2463;49.948;8.472;2022-08-19T12:05:06;82.03;;;6.33;;
4895;SDS011;2463;49.948;8.472;2022-08-19T12:07:37;79.40;;;5.20;;
4895;SDS011;2463;49.948;8.472;2022-08-19T12:10:04;79.30;;;5.20;;
4895;SDS011;2463;49.948;8.472;2022-08-19T12:12:33;80.73;;;5.60;;
4895;SDS011;2463;49.948;8.472;2022-08-19T12:15:00;80.90;;;5.17;;
4895;SDS011;2463;49.948;8.472;2022-08-19T12:17:27;81.30;;;5.83;;
4895;SDS011;2463;49.948;8.472;2022-08-19T12:19:54;80.03;;;5.37;;
4895;SDS011;2463;49.948;8.472;2022-08-19T12:22:21;83.43;;;5.80;;
4895;SDS011;2463;49.948;8.472;2022-08-19T12:24:48;80.27;;;5.33;;
4895;SDS011;2463;49.948;8.472;2022-08-19T12:27:16;78.27;;;4.80;;
4895;SDS011;2463;49.948;8.472;2022-08-19T12:30:04;78.40;;;5.10;;
4895;SDS011;2463;49.948;8.472;2022-08-19T12:32:33;78.70;;;4.80;;
4895;SDS011;2463;49.948;8.472;2022-08-19T12:35:00;78.00;;;5.10;;
4895;SDS011;2463;49.948;8.472;2022-08-19T12:37:27;77.17;;;4.40;;
4895;SDS011;2463;49.948;8.472;2022-08-19T12:39:54;77.47;;;4.73;;
4895;SDS011;2463;49.948;8.472;2022-08-19T12:42:20;76.83;;;4.27;;
4895;SDS011;2463;49.948;8.472;2022-08-19T12:44:48;77.07;;;4.93;;
4895;SDS011;2463;49.948;8.472;2022-08-19T12:47:17;76.80;;;4.70;;
4895;SDS011;2463;49.948;8.472;2022-08-19T12:49:44;80.00;;;4.43;;
4895;SDS011;2463;49.948;8.472;2022-08-19T12:52:21;77.20;;;4.50;;
4895;SDS011;2463;49.948;8.472;2022-08-19T12:54:49;77.20;;;4.47;;
4895;SDS011;2463;49.948;8.472;2022-08-19T12:57:20;77.77;;;4.20;;
4895;SDS011;2463;49.948;8.472;2022-08-19T12:59:58;80.30;;;4.60;;
4895;SDS011;2463;49.948;8.472;2022-08-19T13:02:30;79.53;;;4.53;;
4895;SDS011;2463;49.948;8.472;2022-08-19T13:05:04;77.30;;;4.03;;
4895;SDS011;2463;49.948;8.472;2022-08-19T13:07:34;79.40;;;4.20;;
4895;SDS011;2463;49.948;8.472;2022-08-19T13:10:01;81.13;;;4.37;;
4895;SDS011;2463;49.948;8.472;2022-08-19T13:12:28;76.87;;;3.93;;
4895;SDS011;2463;49.948;8.472;2022-08-19T13:14:55;77.77;;;4.10;;
4895;SDS011;2463;49.948;8.472;2022-08-19T13:17:22;77.40;;;3.93;;
4895;SDS011;2463;49.948;8.472;2022-08-19T13:19:49;80.57;;;4.33;;
4895;SDS011;2463;49.948;8.472;2022-08-19T13:22:16;78.67;;;4.30;;
4895;SDS011;2463;49.948;8.472;2022-08-19T13:24:43;80.40;;;4.23;;
4895;SDS011;2463;49.948;8.472;2022-08-19T13:27:12;77.40;;;4.03;;
4895;SDS011;2463;49.948;8.472;2022-08-19T13:29:42;77.27;;;3.87;;
4895;SDS011;2463;49.948;8.472;2022-08-19T13:32:28;77.93;;;3.40;;
4895;SDS011;2463;49.948;8.472;2022-08-19T13:35:15;78.27;;;3.60;;
4895;SDS011;2463;49.948;8.472;2022-08-19T13:37:43;77.93;;;3.90;;
4895;SDS011;2463;49.948;8.472;2022-08-19T13:40:15;78.67;;;3.93;;
4895;SDS011;2463;49.948;8.472;2022-08-19T13:42:45;77.20;;;3.40;;
4895;SDS011;2463;49.948;8.472;2022-08-19T13:45:18;77.20;;;3.20;;
4895;SDS011;2463;49.948;8.472;2022-08-19T13:47:48;77.67;;;4.10;;
4895;SDS011;2463;49.948;8.472;2022-08-19T13:50:27;77.20;;;3.70;;
4895;SDS011;2463;49.948;8.472;2022-08-19T13:52:55;78.87;;;3.90;;
4895;SDS011;2463;49.948;8.472;2022-08-19T13:55:22;79.17;;;4.00;;
4895;SDS011;2463;49.948;8.472;2022-08-19T13:57:57;79.73;;;4.30;;
4895;SDS011;2463;49.948;8.472;2022-08-19T14:00:28;80.30;;;4.10;;
4895;SDS011;2463;49.948;8.472;2022-08-19T14:02:58;80.90;;;4.40;;
4895;SDS011;2463;49.948;8.472;2022-08-19T14:05:26;79.53;;;3.97;;
4895;SDS011;2463;49.948;8.472;2022-08-19T14:07:54;79.87;;;4.20;;
4895;SDS011;2463;49.948;8.472;2022-08-19T14:10:22;80.00;;;4.37;;
4895;SDS011;2463;49.948;8.472;2022-08-19T14:12:52;81.97;;;4.67;;
4895;SDS011;2463;49.948;8.472;2022-08-19T14:17:49;80.30;;;4.50;;
4895;SDS011;2463;49.948;8.472;2022-08-19T14:20:16;79.97;;;4.00;;
4895;SDS011;2463;49.948;8.472;2022-08-19T14:22:44;81.83;;;4.53;;
4895;SDS011;2463;49.948;8.472;2022-08-19T14:25:17;80.70;;;4.80;;
4895;SDS011;2463;49.948;8.472;2022-08-19T14:27:46;80.43;;;4.70;;
4895;SDS011;2463;49.948;8.472;2022-08-19T14:30:16;82.10;;;4.70;;
4895;SDS011;2463;49.948;8.472;2022-08-19T14:32:55;81.37;;;4.53;;
4895;SDS011;2463;49.948;8.472;2022-08-19T14:35:24;83.13;;;5.20;;
4895;SDS011;2463;49.948;8.472;2022-08-19T14:37:52;83.33;;;5.40;;
4895;SDS011;2463;49.948;8.472;2022-08-19T14:40:22;81.17;;;5.10;;
4895;SDS011;2463;49.948;8.472;2022-08-19T14:42:53;81.57;;;5.37;;
4895;SDS011;2463;49.948;8.472;2022-08-19T14:45:26;81.50;;;5.07;;
4895;SDS011;2463;49.948;8.472;2022-08-19T14:47:54;80.80;;;5.43;;
4895;SDS011;2463;49.948;8.472;2022-08-19T14:50:21;83.27;;;6.10;;
4895;SDS011;2463;49.948;8.472;2022-08-19T14:52:48;82.57;;;6.00;;
4895;SDS011;2463;49.948;8.472;2022-08-19T14:55:16;82.77;;;5.90;;
4895;SDS011;2463;49.948;8.472;2022-08-19T14:57:43;81.60;;;5.87;;
4895;SDS011;2463;49.948;8.472;2022-08-19T15:00:11;81.20;;;5.53;;
4895;SDS011;2463;49.948;8.472;2022-08-19T15:02:41;81.90;;;5.47;;
4895;SDS011;2463;49.948;8.472;2022-08-19T15:05:10;83.20;;;5.67;;
4895;SDS011;2463;49.948;8.472;2022-08-19T15:07:37;82.80;;;4.30;;
4895;SDS011;2463;49.948;8.472;2022-08-19T15:10:05;82.83;;;4.80;;
4895;SDS011;2463;49.948;8.472;2022-08-19T15:12:36;81.47;;;4.80;;
4895;SDS011;2463;49.948;8.472;2022-08-19T15:15:09;81.57;;;4.60;;
4895;SDS011;2463;49.948;8.472;2022-08-19T15:17:39;84.40;;;5.67;;
4895;SDS011;2463;49.948;8.472;2022-08-19T15:20:12;82.17;;;4.83;;